createdAt,value
2019-03-27T00:03:13.674Z,69.84
2019-03-27T00:08:17.622Z,69.96
2019-03-27T00:13:21.530Z,69.96
2019-03-27T00:18:24.640Z,70.18
2019-03-27T00:23:27.690Z,70.36
2019-03-27T00:28:30.714Z,70.60
2019-03-27T00:33:34.676Z,70.71
2019-03-27T00:38:37.702Z,70.77
2019-03-27T00:43:41.427Z,70.89
2019-03-27T00:48:45.110Z,70.90
2019-03-27T00:53:49.169Z,71.21
2019-03-27T00:58:52.450Z,71.54
2019-03-27T01:03:55.466Z,71.83
2019-03-27T01:08:58.453Z,72.15
2019-03-27T01:14:01.440Z,72.28
2019-03-27T01:19:04.424Z,72.51
2019-03-27T01:24:08.093Z,72.91
2019-03-27T01:29:12.209Z,72.79
2019-03-27T01:34:16.304Z,73.17
2019-03-27T01:39:19.443Z,73.37
2019-03-27T01:44:22.875Z,73.50
2019-03-27T01:49:26.779Z,73.53
2019-03-27T01:54:30.408Z,73.70
2019-03-27T01:59:34.029Z,74.07
2019-03-27T02:04:37.366Z,74.19
2019-03-27T02:09:40.665Z,74.24
2019-03-27T02:14:44.214Z,74.35
2019-03-27T02:19:47.683Z,74.71
2019-03-27T02:24:51.271Z,74.83
2019-03-27T02:29:54.256Z,75.06
2019-03-27T02:34:57.552Z,75.34
2019-03-27T02:40:00.917Z,75.41
2019-03-27T02:45:04.366Z,75.64
2019-03-27T02:50:07.563Z,75.90
2019-03-27T02:55:10.953Z,76.24
2019-03-27T03:00:15.190Z,76.35
2019-03-27T03:05:18.712Z,76.49
2019-03-27T03:10:22.149Z,76.66
2019-03-27T03:15:25.939Z,76.91
2019-03-27T03:20:29.585Z,77.16
2019-03-27T03:25:32.676Z,77.41
2019-03-27T03:30:35.922Z,77.48
2019-03-27T03:35:39.581Z,77.64
2019-03-27T03:40:43.116Z,77.63
2019-03-27T03:45:46.383Z,77.74
2019-03-27T03:50:52.074Z,77.85
2019-03-27T03:55:58.586Z,77.84
2019-03-27T04:01:02.516Z,78.08
2019-03-27T04:06:06.366Z,78.00
2019-03-27T04:11:10.356Z,78.19
2019-03-27T04:16:13.992Z,78.02
2019-03-27T04:21:17.564Z,78.36
2019-03-27T04:26:20.599Z,78.55
2019-03-27T04:31:25.442Z,78.71
2019-03-27T04:36:28.474Z,78.98
2019-03-27T04:41:32.463Z,78.99
2019-03-27T04:46:36.358Z,78.99
2019-03-27T04:51:40.107Z,79.10
2019-03-27T04:56:43.100Z,79.08
2019-03-27T05:01:47.262Z,79.22
2019-03-27T05:06:50.484Z,79.13
2019-03-27T05:11:53.549Z,79.19
2019-03-27T05:16:57.240Z,79.19
2019-03-27T05:22:01.392Z,79.19
2019-03-27T05:27:04.815Z,79.30
2019-03-27T05:32:07.887Z,79.25
2019-03-27T05:37:10.924Z,79.27
2019-03-27T05:42:14.259Z,79.16
2019-03-27T05:47:17.951Z,79.17
2019-03-27T05:52:22.198Z,79.12
2019-03-27T05:57:26.546Z,79.06
2019-03-27T06:02:29.549Z,79.14
2019-03-27T06:07:32.800Z,79.23
2019-03-27T06:12:36.771Z,79.17
2019-03-27T06:17:40.659Z,79.01
2019-03-27T06:22:43.976Z,79.05
2019-03-27T06:27:47.279Z,79.07
2019-03-27T06:32:50.360Z,79.00
2019-03-27T06:37:54.011Z,78.96
2019-03-27T06:42:57.967Z,78.67
2019-03-27T06:48:01.691Z,78.55
2019-03-27T06:53:05.263Z,78.48
2019-03-27T06:58:08.720Z,78.18
2019-03-27T07:03:11.749Z,77.65
2019-03-27T07:08:15.154Z,77.59
2019-03-27T07:13:18.347Z,77.40
2019-03-27T07:18:23.006Z,77.24
2019-03-27T07:23:27.319Z,76.57
2019-03-27T07:28:30.369Z,76.26
2019-03-27T07:33:34.457Z,75.75
2019-03-27T07:38:37.730Z,75.47
2019-03-27T07:43:40.752Z,74.12
2019-03-27T07:48:53.841Z,74.37
2019-03-27T07:53:49.657Z,73.73
2019-03-27T07:58:52.739Z,73.05
2019-03-27T08:03:55.875Z,72.54
2019-03-27T08:08:58.852Z,72.37
2019-03-27T08:14:01.917Z,71.87
2019-03-27T08:19:07.733Z,72.11
2019-03-27T08:24:10.520Z,71.96
2019-03-27T08:29:15.721Z,71.60
2019-03-27T08:34:19.329Z,71.73
2019-03-27T08:39:22.828Z,71.61
2019-03-27T08:44:26.514Z,71.51
2019-03-27T08:49:29.745Z,70.99
2019-03-27T08:54:33.402Z,71.22
2019-03-27T08:59:37.506Z,70.94
2019-03-27T09:04:41.241Z,70.72
2019-03-27T09:09:44.472Z,70.91
2019-03-27T09:14:47.491Z,70.67
2019-03-27T09:19:50.543Z,69.67
2019-03-27T09:24:53.972Z,69.14
2019-03-27T09:29:56.971Z,66.94
2019-03-27T09:35:00.395Z,66.41
2019-03-27T09:40:04.611Z,66.17
2019-03-27T09:45:09.029Z,66.06
2019-03-27T09:50:12.664Z,66.33
2019-03-27T09:55:15.878Z,66.44
2019-03-27T10:01:08.507Z,65.83
2019-03-27T10:06:11.554Z,65.85
2019-03-27T10:11:15.163Z,66.27
2019-03-27T10:16:18.678Z,66.95
2019-03-27T10:21:22.300Z,66.28
2019-03-27T10:26:25.323Z,65.90
2019-03-27T10:31:28.633Z,65.91
2019-03-27T10:36:32.142Z,65.83
2019-03-27T10:41:35.100Z,65.74
2019-03-27T10:46:39.037Z,65.02
2019-03-27T10:51:42.107Z,64.98
2019-03-27T10:56:45.438Z,65.48
2019-03-27T11:01:48.471Z,64.96
2019-03-27T11:06:51.567Z,64.12
2019-03-27T11:11:54.569Z,63.61
2019-03-27T11:16:57.547Z,63.90
2019-03-27T11:22:00.892Z,64.22
2019-03-27T11:27:04.018Z,63.82
2019-03-27T11:32:06.977Z,63.83
2019-03-27T11:37:09.967Z,63.74
2019-03-27T11:42:13.649Z,63.34
2019-03-27T11:47:17.240Z,63.58
2019-03-27T11:52:20.252Z,63.21
2019-03-27T11:57:23.333Z,63.26
2019-03-27T12:02:26.880Z,62.71
2019-03-27T12:07:29.834Z,62.99
2019-03-27T12:12:33.187Z,62.62
2019-03-27T12:17:36.504Z,62.28
2019-03-27T12:22:39.836Z,61.81
2019-03-27T12:27:43.864Z,62.68
2019-03-27T12:32:47.096Z,62.61
2019-03-27T12:37:50.488Z,62.20
2019-03-27T12:42:53.749Z,61.83
2019-03-27T12:47:56.740Z,61.93
2019-03-27T12:53:00.200Z,61.93
2019-03-27T12:58:03.652Z,61.44
2019-03-27T13:03:07.302Z,61.53
2019-03-27T13:08:10.631Z,62.31
2019-03-27T13:13:14.595Z,63.34
2019-03-27T13:18:17.542Z,63.81
2019-03-27T13:23:20.652Z,65.17
2019-03-27T13:28:23.723Z,65.70
2019-03-27T13:33:26.725Z,65.57
2019-03-27T13:38:30.391Z,64.33
2019-03-27T13:43:33.718Z,65.06
2019-03-27T13:48:37.752Z,66.53
2019-03-27T13:53:41.042Z,67.00
2019-03-27T13:58:44.355Z,67.03
2019-03-27T14:03:47.418Z,68.81
2019-03-27T14:08:50.968Z,70.21
2019-03-27T14:13:54.923Z,71.00
2019-03-27T14:18:58.404Z,71.50
2019-03-27T14:24:01.311Z,72.27
2019-03-27T14:29:04.732Z,73.58
2019-03-27T14:34:08.470Z,74.39
2019-03-27T14:39:11.642Z,73.93
2019-03-27T14:44:14.644Z,74.70
2019-03-27T14:49:18.613Z,74.54
2019-03-27T14:54:21.700Z,74.38
2019-03-27T14:59:25.025Z,74.42
2019-03-27T15:04:28.014Z,72.96
2019-03-27T15:09:31.415Z,73.01
2019-03-27T15:14:34.842Z,72.80
2019-03-27T15:19:37.804Z,71.36
2019-03-27T15:24:41.077Z,70.97
2019-03-27T15:29:44.681Z,70.13
2019-03-27T15:34:48.275Z,69.00
2019-03-27T15:39:51.455Z,67.81
2019-03-27T15:44:55.428Z,67.10
2019-03-27T15:49:58.925Z,66.17
2019-03-27T15:55:02.176Z,66.25
2019-03-27T16:00:06.578Z,65.39
2019-03-27T16:05:12.300Z,64.99
2019-03-27T16:10:18.404Z,64.37
2019-03-27T16:15:21.849Z,63.36
2019-03-27T16:20:25.449Z,62.93
2019-03-27T16:25:28.793Z,62.54
2019-03-27T16:30:32.383Z,62.56
2019-03-27T16:35:36.097Z,62.22
2019-03-27T16:40:47.564Z,62.22
2019-03-27T16:45:51.146Z,62.20
2019-03-27T16:50:55.443Z,62.18
2019-03-27T16:55:58.702Z,62.35
2019-03-27T17:01:02.988Z,62.37
2019-03-27T17:06:07.395Z,62.42
2019-03-27T17:11:11.067Z,62.22
2019-03-27T17:16:14.078Z,62.29
2019-03-27T17:21:17.085Z,62.55
2019-03-27T17:26:20.505Z,62.86
2019-03-27T17:31:24.190Z,62.99
2019-03-27T17:36:27.289Z,63.15
2019-03-27T17:41:32.553Z,63.11
2019-03-27T17:46:36.081Z,63.06
2019-03-27T17:51:40.096Z,63.59
2019-03-27T17:56:43.368Z,63.87
2019-03-27T18:01:46.617Z,64.31
2019-03-27T18:06:49.631Z,64.38
2019-03-27T18:11:53.043Z,64.53
2019-03-27T18:16:56.652Z,64.91
2019-03-27T18:22:07.507Z,65.20
2019-03-27T18:27:05.946Z,65.59
2019-03-27T18:32:10.219Z,66.07
2019-03-27T18:37:13.912Z,66.63
2019-03-27T18:42:17.328Z,67.27
2019-03-27T18:47:20.364Z,67.67
2019-03-27T18:52:24.229Z,67.80
2019-03-27T18:57:27.343Z,68.37
2019-03-27T19:02:30.405Z,68.85
2019-03-27T19:07:33.497Z,69.27
2019-03-27T19:12:37.587Z,69.08
2019-03-27T19:17:40.929Z,69.40
2019-03-27T19:22:44.040Z,69.93
2019-03-27T19:27:47.580Z,70.10
2019-03-27T19:32:50.994Z,70.23
2019-03-27T19:37:54.598Z,70.39
2019-03-27T19:42:58.881Z,70.52
2019-03-27T19:48:02.316Z,70.43
2019-03-27T19:53:05.632Z,70.61
2019-03-27T19:58:09.342Z,70.91
2019-03-27T20:03:12.585Z,71.12
2019-03-27T20:08:15.561Z,71.57
2019-03-27T20:13:18.863Z,72.06
2019-03-27T20:18:22.219Z,72.39
2019-03-27T20:23:25.897Z,73.16
2019-03-27T20:28:29.396Z,73.83
2019-03-27T20:33:32.385Z,74.28
2019-03-27T20:38:35.477Z,74.91
2019-03-27T20:43:38.791Z,75.12
2019-03-27T20:48:42.733Z,75.78
2019-03-27T20:53:46.147Z,76.11
2019-03-27T20:58:50.139Z,76.82
2019-03-27T21:03:56.105Z,77.41
2019-03-27T21:09:01.627Z,77.79
2019-03-27T21:14:06.705Z,78.00
2019-03-27T21:19:09.659Z,78.51
2019-03-27T21:24:12.665Z,79.01
2019-03-27T21:29:15.965Z,79.50
2019-03-27T21:34:19.396Z,79.80
2019-03-27T21:39:25.633Z,79.79
2019-03-27T21:44:27.254Z,79.93
2019-03-27T21:49:30.335Z,80.23
2019-03-27T21:54:34.473Z,80.13
2019-03-27T21:59:37.844Z,80.47
2019-03-27T22:04:41.029Z,80.66
2019-03-27T22:09:45.021Z,80.93
2019-03-27T22:14:50.431Z,81.23
2019-03-27T22:19:53.791Z,81.46
2019-03-27T22:24:56.872Z,81.41
2019-03-27T22:30:01.775Z,81.26
2019-03-27T22:35:05.772Z,81.47
2019-03-27T22:40:09.038Z,81.68
2019-03-27T22:45:12.922Z,81.93
2019-03-27T22:50:16.204Z,82.23
2019-03-27T22:55:19.792Z,82.32
2019-03-27T23:00:31.363Z,82.54
2019-03-27T23:05:36.765Z,82.42
2019-03-27T23:10:40.395Z,82.67
2019-03-27T23:15:45.610Z,82.68
2019-03-27T23:20:48.812Z,82.75
2019-03-27T23:26:02.563Z,82.68
2019-03-27T23:30:57.799Z,82.87
2019-03-27T23:36:01.758Z,82.83
2019-03-27T23:41:05.542Z,83.01
2019-03-27T23:46:08.788Z,82.86
2019-03-27T23:51:12.644Z,83.08
2019-03-27T23:56:17.141Z,82.92
